sensor_id;sensor_type;location;lat;lon;timestamp;P1;durP1;ratioP1;P2;durP2;ratioP2
12302;SDS011;6214;48.012;7.862;2022-10-17T00:02:24;13.65;;;2.20;;
12302;SDS011;6214;48.012;7.862;2022-10-17T00:04:50;12.60;;;2.30;;
12302;SDS011;6214;48.012;7.862;2022-10-17T00:07:17;11.60;;;2.08;;
12302;SDS011;6214;48.012;7.862;2022-10-17T00:09:44;13.10;;;2.60;;
12302;SDS011;6214;48.012;7.862;2022-10-17T00:12:11;13.30;;;2.35;;
12302;SDS011;6214;48.012;7.862;2022-10-17T00:14:38;12.00;;;2.30;;
12302;SDS011;6214;48.012;7.862;2022-10-17T00:17:05;13.50;;;2.00;;
12302;SDS011;6214;48.012;7.862;2022-10-17T00:19:32;11.75;;;2.28;;
12302;SDS011;6214;48.012;7.862;2022-10-17T00:22:00;13.10;;;2.53;;
12302;SDS011;6214;48.012;7.862;2022-10-17T00:24:28;12.33;;;2.40;;
12302;SDS011;6214;48.012;7.862;2022-10-17T00:26:56;13.60;;;2.60;;
12302;SDS011;6214;48.012;7.862;2022-10-17T00:29:23;11.05;;;2.72;;
12302;SDS011;6214;48.012;7.862;2022-10-17T00:31:53;12.02;;;2.40;;
12302;SDS011;6214;48.012;7.862;2022-10-17T00:34:21;11.65;;;2.45;;
12302;SDS011;6214;48.012;7.862;2022-10-17T00:36:49;14.10;;;2.40;;
12302;SDS011;6214;48.012;7.862;2022-10-17T00:39:16;15.60;;;2.50;;
12302;SDS011;6214;48.012;7.862;2022-10-17T00:41:43;12.30;;;2.60;;
12302;SDS011;6214;48.012;7.862;2022-10-17T00:46:55;12.10;;;2.20;;
12302;SDS011;6214;48.012;7.862;2022-10-17T00:49:24;12.20;;;2.38;;
12302;SDS011;6214;48.012;7.862;2022-10-17T00:51:58;11.10;;;2.50;;
12302;SDS011;6214;48.012;7.862;2022-10-17T00:54:29;11.38;;;2.30;;
12302;SDS011;6214;48.012;7.862;2022-10-17T00:56:59;13.30;;;2.27;;
12302;SDS011;6214;48.012;7.862;2022-10-17T00:59:27;10.52;;;1.90;;
12302;SDS011;6214;48.012;7.862;2022-10-17T01:04:45;12.55;;;2.30;;
12302;SDS011;6214;48.012;7.862;2022-10-17T01:07:14;12.02;;;2.53;;
12302;SDS011;6214;48.012;7.862;2022-10-17T01:09:42;14.02;;;2.50;;
12302;SDS011;6214;48.012;7.862;2022-10-17T01:17:50;12.97;;;2.63;;
12302;SDS011;6214;48.012;7.862;2022-10-17T01:23:29;12.75;;;2.50;;
12302;SDS011;6214;48.012;7.862;2022-10-17T01:26:25;12.27;;;2.40;;
12302;SDS011;6214;48.012;7.862;2022-10-17T01:31:50;11.50;;;2.60;;
12302;SDS011;6214;48.012;7.862;2022-10-17T01:37:07;10.32;;;2.20;;
12302;SDS011;6214;48.012;7.862;2022-10-17T01:39:59;12.48;;;2.40;;
12302;SDS011;6214;48.012;7.862;2022-10-17T01:47:37;11.45;;;2.50;;
12302;SDS011;6214;48.012;7.862;2022-10-17T01:50:11;11.20;;;2.72;;
12302;SDS011;6214;48.012;7.862;2022-10-17T01:52:44;12.60;;;2.40;;
12302;SDS011;6214;48.012;7.862;2022-10-17T01:55:37;12.13;;;2.45;;
12302;SDS011;6214;48.012;7.862;2022-10-17T01:58:09;12.18;;;2.40;;
12302;SDS011;6214;48.012;7.862;2022-10-17T02:00:38;14.55;;;2.50;;
12302;SDS011;6214;48.012;7.862;2022-10-17T02:03:08;11.55;;;2.28;;
12302;SDS011;6214;48.012;7.862;2022-10-17T02:05:40;11.20;;;2.40;;
12302;SDS011;6214;48.012;7.862;2022-10-17T02:08:08;12.80;;;2.50;;
12302;SDS011;6214;48.012;7.862;2022-10-17T02:15:41;10.98;;;2.30;;
12302;SDS011;6214;48.012;7.862;2022-10-17T02:21:07;11.23;;;2.03;;
12302;SDS011;6214;48.012;7.862;2022-10-17T02:23:45;12.73;;;2.10;;
12302;SDS011;6214;48.012;7.862;2022-10-17T02:26:28;12.30;;;2.20;;
12302;SDS011;6214;48.012;7.862;2022-10-17T02:31:57;11.10;;;2.20;;
12302;SDS011;6214;48.012;7.862;2022-10-17T02:34:29;12.55;;;2.30;;
12302;SDS011;6214;48.012;7.862;2022-10-17T02:37:18;12.70;;;2.50;;
12302;SDS011;6214;48.012;7.862;2022-10-17T02:39:50;12.82;;;2.35;;
12302;SDS011;6214;48.012;7.862;2022-10-17T02:42:19;12.77;;;2.40;;
12302;SDS011;6214;48.012;7.862;2022-10-17T02:44:48;11.90;;;2.50;;
12302;SDS011;6214;48.012;7.862;2022-10-17T02:47:52;12.70;;;2.40;;
12302;SDS011;6214;48.012;7.862;2022-10-17T02:50:09;11.60;;;2.50;;
12302;SDS011;6214;48.012;7.862;2022-10-17T02:52:38;11.40;;;2.05;;
12302;SDS011;6214;48.012;7.862;2022-10-17T02:55:18;11.82;;;2.45;;
12302;SDS011;6214;48.012;7.862;2022-10-17T02:57:58;12.43;;;2.50;;
12302;SDS011;6214;48.012;7.862;2022-10-17T03:00:29;11.38;;;2.00;;
12302;SDS011;6214;48.012;7.862;2022-10-17T03:02:57;10.77;;;2.17;;
12302;SDS011;6214;48.012;7.862;2022-10-17T03:05:27;10.98;;;2.10;;
12302;SDS011;6214;48.012;7.862;2022-10-17T03:07:55;11.10;;;2.10;;
12302;SDS011;6214;48.012;7.862;2022-10-17T03:10:22;12.35;;;2.22;;
12302;SDS011;6214;48.012;7.862;2022-10-17T03:12:49;11.88;;;2.05;;
12302;SDS011;6214;48.012;7.862;2022-10-17T03:15:16;12.68;;;2.30;;
12302;SDS011;6214;48.012;7.862;2022-10-17T03:17:42;11.00;;;2.15;;
12302;SDS011;6214;48.012;7.862;2022-10-17T03:20:10;11.90;;;2.35;;
12302;SDS011;6214;48.012;7.862;2022-10-17T03:22:37;11.73;;;2.20;;
12302;SDS011;6214;48.012;7.862;2022-10-17T03:25:04;11.63;;;2.30;;
12302;SDS011;6214;48.012;7.862;2022-10-17T03:27:31;11.75;;;2.25;;
12302;SDS011;6214;48.012;7.862;2022-10-17T03:29:58;11.32;;;2.33;;
12302;SDS011;6214;48.012;7.862;2022-10-17T03:32:25;11.20;;;2.33;;
12302;SDS011;6214;48.012;7.862;2022-10-17T03:34:51;12.30;;;2.70;;
12302;SDS011;6214;48.012;7.862;2022-10-17T03:37:18;11.07;;;2.30;;
12302;SDS011;6214;48.012;7.862;2022-10-17T03:39:45;12.65;;;2.58;;
12302;SDS011;6214;48.012;7.862;2022-10-17T03:42:12;11.70;;;2.40;;
12302;SDS011;6214;48.012;7.862;2022-10-17T03:44:38;10.90;;;2.53;;
12302;SDS011;6214;48.012;7.862;2022-10-17T03:47:05;11.65;;;2.30;;
12302;SDS011;6214;48.012;7.862;2022-10-17T03:49:37;13.15;;;2.50;;
12302;SDS011;6214;48.012;7.862;2022-10-17T03:52:03;12.00;;;2.80;;
12302;SDS011;6214;48.012;7.862;2022-10-17T03:54:30;11.90;;;2.63;;
12302;SDS011;6214;48.012;7.862;2022-10-17T03:56:57;12.50;;;2.40;;
12302;SDS011;6214;48.012;7.862;2022-10-17T03:59:24;11.40;;;2.40;;
12302;SDS011;6214;48.012;7.862;2022-10-17T04:01:50;12.10;;;2.80;;
12302;SDS011;6214;48.012;7.862;2022-10-17T04:04:17;12.18;;;2.70;;
12302;SDS011;6214;48.012;7.862;2022-10-17T04:06:44;12.60;;;2.40;;
12302;SDS011;6214;48.012;7.862;2022-10-17T04:09:11;12.35;;;2.70;;
12302;SDS011;6214;48.012;7.862;2022-10-17T04:11:38;11.80;;;2.40;;
12302;SDS011;6214;48.012;7.862;2022-10-17T04:14:05;11.40;;;2.20;;
12302;SDS011;6214;48.012;7.862;2022-10-17T04:16:31;12.50;;;2.70;;
12302;SDS011;6214;48.012;7.862;2022-10-17T04:18:58;10.90;;;2.60;;
12302;SDS011;6214;48.012;7.862;2022-10-17T04:21:26;11.30;;;2.40;;
12302;SDS011;6214;48.012;7.862;2022-10-17T04:23:55;11.73;;;2.63;;
12302;SDS011;6214;48.012;7.862;2022-10-17T04:26:23;13.48;;;2.97;;
12302;SDS011;6214;48.012;7.862;2022-10-17T04:28:50;13.20;;;2.50;;
12302;SDS011;6214;48.012;7.862;2022-10-17T04:31:17;12.73;;;3.00;;
12302;SDS011;6214;48.012;7.862;2022-10-17T04:33:47;11.30;;;2.60;;
12302;SDS011;6214;48.012;7.862;2022-10-17T04:36:16;12.45;;;2.40;;
12302;SDS011;6214;48.012;7.862;2022-10-17T04:38:44;14.52;;;2.63;;
12302;SDS011;6214;48.012;7.862;2022-10-17T04:41:12;12.20;;;2.50;;
12302;SDS011;6214;48.012;7.862;2022-10-17T04:43:40;10.90;;;2.40;;
12302;SDS011;6214;48.012;7.862;2022-10-17T04:46:12;12.20;;;2.35;;
12302;SDS011;6214;48.012;7.862;2022-10-17T04:48:40;10.88;;;2.40;;
12302;SDS011;6214;48.012;7.862;2022-10-17T04:51:09;12.75;;;2.80;;
12302;SDS011;6214;48.012;7.862;2022-10-17T04:53:38;12.47;;;3.00;;
12302;SDS011;6214;48.012;7.862;2022-10-17T04:56:09;11.68;;;2.67;;
12302;SDS011;6214;48.012;7.862;2022-10-17T04:58:37;11.02;;;2.50;;
12302;SDS011;6214;48.012;7.862;2022-10-17T05:01:06;10.80;;;2.80;;
12302;SDS011;6214;48.012;7.862;2022-10-17T05:03:34;12.60;;;2.80;;
12302;SDS011;6214;48.012;7.862;2022-10-17T05:06:02;12.60;;;2.90;;
12302;SDS011;6214;48.012;7.862;2022-10-17T05:08:30;11.85;;;2.50;;
12302;SDS011;6214;48.012;7.862;2022-10-17T05:10:57;13.20;;;3.07;;
12302;SDS011;6214;48.012;7.862;2022-10-17T05:13:29;11.98;;;2.70;;
12302;SDS011;6214;48.012;7.862;2022-10-17T05:15:59;15.27;;;3.08;;
12302;SDS011;6214;48.012;7.862;2022-10-17T05:18:27;12.47;;;2.97;;
12302;SDS011;6214;48.012;7.862;2022-10-17T05:20:54;13.95;;;2.65;;
12302;SDS011;6214;48.012;7.862;2022-10-17T05:23:21;11.30;;;2.50;;
12302;SDS011;6214;48.012;7.862;2022-10-17T05:25:52;11.50;;;2.40;;
12302;SDS011;6214;48.012;7.862;2022-10-17T05:28:20;11.82;;;2.25;;
12302;SDS011;6214;48.012;7.862;2022-10-17T05:30:47;12.85;;;2.35;;
12302;SDS011;6214;48.012;7.862;2022-10-17T05:33:14;13.13;;;3.30;;
12302;SDS011;6214;48.012;7.862;2022-10-17T05:35:41;12.00;;;2.40;;
12302;SDS011;6214;48.012;7.862;2022-10-17T05:38:08;12.60;;;2.50;;
12302;SDS011;6214;48.012;7.862;2022-10-17T05:40:34;11.80;;;2.70;;
12302;SDS011;6214;48.012;7.862;2022-10-17T05:43:01;10.32;;;2.20;;
12302;SDS011;6214;48.012;7.862;2022-10-17T05:45:28;11.75;;;2.70;;
12302;SDS011;6214;48.012;7.862;2022-10-17T05:47:55;12.57;;;2.60;;
12302;SDS011;6214;48.012;7.862;2022-10-17T05:50:22;11.98;;;2.40;;
12302;SDS011;6214;48.012;7.862;2022-10-17T05:52:53;11.52;;;2.55;;
12302;SDS011;6214;48.012;7.862;2022-10-17T05:55:21;12.35;;;2.60;;
12302;SDS011;6214;48.012;7.862;2022-10-17T05:57:48;11.70;;;2.80;;
12302;SDS011;6214;48.012;7.862;2022-10-17T06:00:15;10.85;;;2.33;;
12302;SDS011;6214;48.012;7.862;2022-10-17T06:02:42;12.63;;;2.80;;
12302;SDS011;6214;48.012;7.862;2022-10-17T06:05:11;12.73;;;2.70;;
12302;SDS011;6214;48.012;7.862;2022-10-17T06:07:38;11.60;;;2.85;;
12302;SDS011;6214;48.012;7.862;2022-10-17T06:10:06;12.80;;;2.75;;
12302;SDS011;6214;48.012;7.862;2022-10-17T06:12:33;10.98;;;3.00;;
12302;SDS011;6214;48.012;7.862;2022-10-17T06:15:00;13.85;;;2.80;;
12302;SDS011;6214;48.012;7.862;2022-10-17T06:17:26;11.60;;;2.80;;
12302;SDS011;6214;48.012;7.862;2022-10-17T06:19:55;11.90;;;2.50;;
12302;SDS011;6214;48.012;7.862;2022-10-17T06:22:22;12.70;;;3.00;;
12302;SDS011;6214;48.012;7.862;2022-10-17T06:24:49;14.57;;;2.60;;
12302;SDS011;6214;48.012;7.862;2022-10-17T06:27:19;11.60;;;2.80;;
12302;SDS011;6214;48.012;7.862;2022-10-17T06:29:46;11.90;;;2.53;;
12302;SDS011;6214;48.012;7.862;2022-10-17T06:32:13;13.60;;;2.70;;
12302;SDS011;6214;48.012;7.862;2022-10-17T06:34:40;13.30;;;2.70;;
12302;SDS011;6214;48.012;7.862;2022-10-17T06:37:07;12.23;;;2.90;;
12302;SDS011;6214;48.012;7.862;2022-10-17T06:39:34;12.82;;;2.50;;
12302;SDS011;6214;48.012;7.862;2022-10-17T06:42:02;14.07;;;2.90;;
12302;SDS011;6214;48.012;7.862;2022-10-17T06:44:29;13.27;;;2.88;;
12302;SDS011;6214;48.012;7.862;2022-10-17T06:46:57;11.15;;;2.60;;
12302;SDS011;6214;48.012;7.862;2022-10-17T06:49:25;11.93;;;2.70;;
12302;SDS011;6214;48.012;7.862;2022-10-17T06:51:53;13.27;;;2.92;;
12302;SDS011;6214;48.012;7.862;2022-10-17T06:54:20;11.90;;;2.75;;
12302;SDS011;6214;48.012;7.862;2022-10-17T06:56:46;12.30;;;2.70;;
12302;SDS011;6214;48.012;7.862;2022-10-17T06:59:13;11.30;;;2.63;;
12302;SDS011;6214;48.012;7.862;2022-10-17T07:01:40;11.50;;;3.33;;
12302;SDS011;6214;48.012;7.862;2022-10-17T07:04:12;11.37;;;2.63;;
12302;SDS011;6214;48.012;7.862;2022-10-17T07:06:39;12.93;;;2.80;;
12302;SDS011;6214;48.012;7.862;2022-10-17T07:09:06;12.03;;;2.70;;
12302;SDS011;6214;48.012;7.862;2022-10-17T07:11:33;11.80;;;2.90;;
12302;SDS011;6214;48.012;7.862;2022-10-17T07:14:00;12.80;;;3.10;;
12302;SDS011;6214;48.012;7.862;2022-10-17T07:16:27;11.35;;;2.70;;
12302;SDS011;6214;48.012;7.862;2022-10-17T07:18:54;10.95;;;2.70;;
12302;SDS011;6214;48.012;7.862;2022-10-17T07:21:21;12.60;;;3.00;;
12302;SDS011;6214;48.012;7.862;2022-10-17T07:23:48;13.32;;;2.80;;
12302;SDS011;6214;48.012;7.862;2022-10-17T07:26:16;12.88;;;2.50;;
12302;SDS011;6214;48.012;7.862;2022-10-17T07:28:44;13.45;;;2.80;;
12302;SDS011;6214;48.012;7.862;2022-10-17T07:31:14;13.40;;;3.00;;
12302;SDS011;6214;48.012;7.862;2022-10-17T07:33:43;13.32;;;2.53;;
12302;SDS011;6214;48.012;7.862;2022-10-17T07:36:13;13.18;;;3.10;;
12302;SDS011;6214;48.012;7.862;2022-10-17T07:38:40;12.65;;;2.78;;
12302;SDS011;6214;48.012;7.862;2022-10-17T07:41:08;12.40;;;2.80;;
12302;SDS011;6214;48.012;7.862;2022-10-17T07:43:36;14.73;;;3.00;;
12302;SDS011;6214;48.012;7.862;2022-10-17T07:46:04;11.52;;;2.95;;
12302;SDS011;6214;48.012;7.862;2022-10-17T07:48:31;14.20;;;3.83;;
12302;SDS011;6214;48.012;7.862;2022-10-17T07:51:02;12.77;;;3.72;;
12302;SDS011;6214;48.012;7.862;2022-10-17T07:53:30;11.05;;;2.50;;
12302;SDS011;6214;48.012;7.862;2022-10-17T07:55:57;11.50;;;2.50;;
12302;SDS011;6214;48.012;7.862;2022-10-17T07:58:24;12.02;;;2.30;;
12302;SDS011;6214;48.012;7.862;2022-10-17T08:00:51;14.38;;;2.70;;
12302;SDS011;6214;48.012;7.862;2022-10-17T08:03:18;12.52;;;3.05;;
12302;SDS011;6214;48.012;7.862;2022-10-17T08:05:44;12.90;;;3.00;;
12302;SDS011;6214;48.012;7.862;2022-10-17T08:08:11;11.90;;;2.60;;
12302;SDS011;6214;48.012;7.862;2022-10-17T08:10:38;12.57;;;2.85;;
12302;SDS011;6214;48.012;7.862;2022-10-17T08:13:05;11.70;;;2.58;;
12302;SDS011;6214;48.012;7.862;2022-10-17T08:15:32;12.30;;;2.90;;
12302;SDS011;6214;48.012;7.862;2022-10-17T08:17:59;11.68;;;2.53;;
12302;SDS011;6214;48.012;7.862;2022-10-17T08:20:25;13.32;;;2.80;;
12302;SDS011;6214;48.012;7.862;2022-10-17T08:22:53;11.57;;;2.85;;
12302;SDS011;6214;48.012;7.862;2022-10-17T08:25:20;12.00;;;2.50;;
12302;SDS011;6214;48.012;7.862;2022-10-17T08:27:48;12.75;;;3.40;;
12302;SDS011;6214;48.012;7.862;2022-10-17T08:30:15;12.20;;;3.40;;
12302;SDS011;6214;48.012;7.862;2022-10-17T08:32:42;13.55;;;3.00;;
12302;SDS011;6214;48.012;7.862;2022-10-17T08:35:09;13.27;;;3.30;;
12302;SDS011;6214;48.012;7.862;2022-10-17T08:37:36;12.03;;;3.30;;
12302;SDS011;6214;48.012;7.862;2022-10-17T08:40:03;12.60;;;3.15;;
12302;SDS011;6214;48.012;7.862;2022-10-17T08:42:38;13.63;;;3.30;;
12302;SDS011;6214;48.012;7.862;2022-10-17T08:48:15;12.73;;;3.40;;
12302;SDS011;6214;48.012;7.862;2022-10-17T08:50:58;13.33;;;3.37;;
12302;SDS011;6214;48.012;7.862;2022-10-17T08:53:31;13.90;;;3.20;;
12302;SDS011;6214;48.012;7.862;2022-10-17T08:56:23;13.23;;;3.50;;
12302;SDS011;6214;48.012;7.862;2022-10-17T08:59:12;11.43;;;2.83;;
12302;SDS011;6214;48.012;7.862;2022-10-17T09:18:10;13.02;;;2.80;;
12302;SDS011;6214;48.012;7.862;2022-10-17T09:20:45;12.00;;;3.00;;
12302;SDS011;6214;48.012;7.862;2022-10-17T09:24:00;14.30;;;2.70;;
12302;SDS011;6214;48.012;7.862;2022-10-17T09:26:35;11.80;;;2.70;;
12302;SDS011;6214;48.012;7.862;2022-10-17T09:29:11;11.55;;;2.92;;
12302;SDS011;6214;48.012;7.862;2022-10-17T09:31:45;12.45;;;3.28;;
12302;SDS011;6214;48.012;7.862;2022-10-17T09:34:23;12.30;;;3.10;;
12302;SDS011;6214;48.012;7.862;2022-10-17T09:36:53;12.15;;;3.00;;
12302;SDS011;6214;48.012;7.862;2022-10-17T09:39:22;14.02;;;3.15;;
12302;SDS011;6214;48.012;7.862;2022-10-17T09:41:55;12.95;;;3.30;;
12302;SDS011;6214;48.012;7.862;2022-10-17T09:44:34;12.90;;;3.20;;
12302;SDS011;6214;48.012;7.862;2022-10-17T09:49:44;13.20;;;3.10;;
12302;SDS011;6214;48.012;7.862;2022-10-17T09:52:20;12.85;;;3.30;;
12302;SDS011;6214;48.012;7.862;2022-10-17T09:55:20;14.00;;;3.20;;
12302;SDS011;6214;48.012;7.862;2022-10-17T09:58:03;13.30;;;3.30;;
12302;SDS011;6214;48.012;7.862;2022-10-17T10:00:35;12.40;;;2.70;;
12302;SDS011;6214;48.012;7.862;2022-10-17T10:06:04;12.43;;;3.40;;
12302;SDS011;6214;48.012;7.862;2022-10-17T10:08:52;15.35;;;3.22;;
12302;SDS011;6214;48.012;7.862;2022-10-17T10:11:22;14.45;;;3.15;;
12302;SDS011;6214;48.012;7.862;2022-10-17T10:14:11;14.77;;;3.33;;
12302;SDS011;6214;48.012;7.862;2022-10-17T10:16:45;15.80;;;3.10;;
12302;SDS011;6214;48.012;7.862;2022-10-17T10:19:32;13.57;;;3.10;;
12302;SDS011;6214;48.012;7.862;2022-10-17T10:22:05;11.07;;;2.70;;
12302;SDS011;6214;48.012;7.862;2022-10-17T10:24:40;11.52;;;2.70;;
12302;SDS011;6214;48.012;7.862;2022-10-17T10:27:11;12.38;;;2.70;;
12302;SDS011;6214;48.012;7.862;2022-10-17T10:29:42;11.45;;;2.60;;
12302;SDS011;6214;48.012;7.862;2022-10-17T10:34:55;13.70;;;2.40;;
12302;SDS011;6214;48.012;7.862;2022-10-17T10:37:26;11.38;;;2.40;;
12302;SDS011;6214;48.012;7.862;2022-10-17T10:40:05;12.80;;;2.70;;
12302;SDS011;6214;48.012;7.862;2022-10-17T10:42:41;11.63;;;2.30;;
12302;SDS011;6214;48.012;7.862;2022-10-17T10:45:21;13.20;;;2.53;;
12302;SDS011;6214;48.012;7.862;2022-10-17T10:50:52;12.00;;;2.10;;
12302;SDS011;6214;48.012;7.862;2022-10-17T11:04:33;11.15;;;2.20;;
12302;SDS011;6214;48.012;7.862;2022-10-17T11:09:55;11.30;;;2.00;;
12302;SDS011;6214;48.012;7.862;2022-10-17T11:12:39;11.45;;;2.17;;
12302;SDS011;6214;48.012;7.862;2022-10-17T11:18:10;10.95;;;1.90;;
12302;SDS011;6214;48.012;7.862;2022-10-17T11:21:18;12.18;;;1.95;;
12302;SDS011;6214;48.012;7.862;2022-10-17T11:23:59;11.20;;;1.80;;
12302;SDS011;6214;48.012;7.862;2022-10-17T11:26:52;10.80;;;2.10;;
12302;SDS011;6214;48.012;7.862;2022-10-17T11:29:27;10.48;;;1.70;;
12302;SDS011;6214;48.012;7.862;2022-10-17T11:32:00;10.95;;;1.70;;
12302;SDS011;6214;48.012;7.862;2022-10-17T11:34:34;11.68;;;1.67;;
12302;SDS011;6214;48.012;7.862;2022-10-17T11:37:17;11.32;;;1.65;;
12302;SDS011;6214;48.012;7.862;2022-10-17T11:42:51;11.15;;;1.50;;
12302;SDS011;6214;48.012;7.862;2022-10-17T11:45:28;10.70;;;1.50;;
12302;SDS011;6214;48.012;7.862;2022-10-17T11:48:05;10.90;;;1.45;;
12302;SDS011;6214;48.012;7.862;2022-10-17T11:50:38;12.55;;;1.60;;
12302;SDS011;6214;48.012;7.862;2022-10-17T11:53:30;10.60;;;1.60;;
12302;SDS011;6214;48.012;7.862;2022-10-17T11:56:08;10.10;;;1.35;;
12302;SDS011;6214;48.012;7.862;2022-10-17T12:01:14;10.10;;;1.30;;
12302;SDS011;6214;48.012;7.862;2022-10-17T12:16:59;9.98;;;1.42;;
12302;SDS011;6214;48.012;7.862;2022-10-17T12:19:28;11.30;;;1.30;;
12302;SDS011;6214;48.012;7.862;2022-10-17T12:22:01;10.45;;;1.30;;
12302;SDS011;6214;48.012;7.862;2022-10-17T12:24:59;10.43;;;1.40;;
12302;SDS011;6214;48.012;7.862;2022-10-17T12:30:13;9.53;;;1.20;;
12302;SDS011;6214;48.012;7.862;2022-10-17T12:35:37;11.43;;;1.70;;
12302;SDS011;6214;48.012;7.862;2022-10-17T12:54:05;10.90;;;1.30;;
12302;SDS011;6214;48.012;7.862;2022-10-17T12:56:41;10.10;;;1.30;;
12302;SDS011;6214;48.012;7.862;2022-10-17T13:01:45;10.25;;;1.40;;
12302;SDS011;6214;48.012;7.862;2022-10-17T13:04:16;11.57;;;1.52;;
12302;SDS011;6214;48.012;7.862;2022-10-17T13:06:45;10.00;;;1.30;;
12302;SDS011;6214;48.012;7.862;2022-10-17T13:09:25;9.80;;;1.40;;
12302;SDS011;6214;48.012;7.862;2022-10-17T13:11:58;10.52;;;1.40;;
12302;SDS011;6214;48.012;7.862;2022-10-17T13:14:29;11.57;;;1.40;;
12302;SDS011;6214;48.012;7.862;2022-10-17T13:17:00;11.30;;;1.50;;
12302;SDS011;6214;48.012;7.862;2022-10-17T13:19:29;9.93;;;1.20;;
12302;SDS011;6214;48.012;7.862;2022-10-17T13:22:21;10.30;;;1.50;;
12302;SDS011;6214;48.012;7.862;2022-10-17T13:24:50;10.18;;;1.42;;
12302;SDS011;6214;48.012;7.862;2022-10-17T13:27:23;10.30;;;1.30;;
12302;SDS011;6214;48.012;7.862;2022-10-17T13:29:59;10.48;;;1.60;;
12302;SDS011;6214;48.012;7.862;2022-10-17T13:32:37;10.43;;;1.60;;
12302;SDS011;6214;48.012;7.862;2022-10-17T13:35:11;11.60;;;1.55;;
12302;SDS011;6214;48.012;7.862;2022-10-17T13:37:40;10.90;;;1.40;;
12302;SDS011;6214;48.012;7.862;2022-10-17T13:40:27;10.50;;;1.30;;
12302;SDS011;6214;48.012;7.862;2022-10-17T13:43:17;10.00;;;1.20;;
12302;SDS011;6214;48.012;7.862;2022-10-17T13:45:49;10.25;;;1.40;;
12302;SDS011;6214;48.012;7.862;2022-10-17T13:48:19;11.30;;;1.50;;
12302;SDS011;6214;48.012;7.862;2022-10-17T13:50:49;11.57;;;1.60;;
12302;SDS011;6214;48.012;7.862;2022-10-17T13:55:49;11.07;;;1.80;;
12302;SDS011;6214;48.012;7.862;2022-10-17T13:59:01;10.50;;;1.50;;
12302;SDS011;6214;48.012;7.862;2022-10-17T14:01:39;11.00;;;1.40;;
12302;SDS011;6214;48.012;7.862;2022-10-17T14:04:07;10.65;;;1.50;;
12302;SDS011;6214;48.012;7.862;2022-10-17T14:06:45;10.87;;;1.50;;
12302;SDS011;6214;48.012;7.862;2022-10-17T14:09:21;10.40;;;1.60;;
12302;SDS011;6214;48.012;7.862;2022-10-17T14:12:06;11.00;;;1.80;;
12302;SDS011;6214;48.012;7.862;2022-10-17T14:14:38;9.88;;;1.40;;
12302;SDS011;6214;48.012;7.862;2022-10-17T14:17:31;10.90;;;1.50;;
12302;SDS011;6214;48.012;7.862;2022-10-17T14:20:03;10.10;;;1.30;;
12302;SDS011;6214;48.012;7.862;2022-10-17T14:22:50;10.17;;;1.30;;
12302;SDS011;6214;48.012;7.862;2022-10-17T14:25:38;11.40;;;1.70;;
12302;SDS011;6214;48.012;7.862;2022-10-17T14:33:23;11.27;;;1.60;;
12302;SDS011;6214;48.012;7.862;2022-10-17T14:35:58;10.23;;;1.60;;
12302;SDS011;6214;48.012;7.862;2022-10-17T14:38:27;11.00;;;1.57;;
12302;SDS011;6214;48.012;7.862;2022-10-17T14:40:58;11.63;;;1.45;;
12302;SDS011;6214;48.012;7.862;2022-10-17T14:44:02;10.00;;;1.65;;
12302;SDS011;6214;48.012;7.862;2022-10-17T14:46:33;10.30;;;1.60;;
12302;SDS011;6214;48.012;7.862;2022-10-17T14:49:03;12.30;;;1.90;;
12302;SDS011;6214;48.012;7.862;2022-10-17T14:51:32;14.33;;;1.70;;
12302;SDS011;6214;48.012;7.862;2022-10-17T14:54:25;9.70;;;1.30;;
12302;SDS011;6214;48.012;7.862;2022-10-17T14:56:54;11.50;;;1.50;;
12302;SDS011;6214;48.012;7.862;2022-10-17T14:59:21;9.63;;;1.30;;
12302;SDS011;6214;48.012;7.862;2022-10-17T15:02:10;10.90;;;1.60;;
12302;SDS011;6214;48.012;7.862;2022-10-17T15:04:38;11.50;;;2.20;;
12302;SDS011;6214;48.012;7.862;2022-10-17T15:07:04;10.00;;;1.50;;
12302;SDS011;6214;48.012;7.862;2022-10-17T15:09:31;10.00;;;1.50;;
12302;SDS011;6214;48.012;7.862;2022-10-17T15:12:01;10.32;;;1.70;;
12302;SDS011;6214;48.012;7.862;2022-10-17T15:14:32;11.00;;;1.60;;
12302;SDS011;6214;48.012;7.862;2022-10-17T15:16:59;10.18;;;1.60;;
12302;SDS011;6214;48.012;7.862;2022-10-17T15:19:25;11.63;;;1.58;;
12302;SDS011;6214;48.012;7.862;2022-10-17T15:21:52;10.55;;;1.50;;
12302;SDS011;6214;48.012;7.862;2022-10-17T15:24:19;11.10;;;1.63;;
12302;SDS011;6214;48.012;7.862;2022-10-17T15:26:46;11.20;;;1.60;;
12302;SDS011;6214;48.012;7.862;2022-10-17T15:29:13;10.10;;;1.55;;
12302;SDS011;6214;48.012;7.862;2022-10-17T15:31:41;11.50;;;1.63;;
12302;SDS011;6214;48.012;7.862;2022-10-17T15:34:08;11.00;;;1.65;;
12302;SDS011;6214;48.012;7.862;2022-10-17T15:36:37;10.63;;;1.93;;
12302;SDS011;6214;48.012;7.862;2022-10-17T15:39:05;11.02;;;1.90;;
12302;SDS011;6214;48.012;7.862;2022-10-17T15:41:33;13.80;;;2.00;;
12302;SDS011;6214;48.012;7.862;2022-10-17T15:44:00;11.93;;;1.92;;
12302;SDS011;6214;48.012;7.862;2022-10-17T15:46:27;10.90;;;1.80;;
12302;SDS011;6214;48.012;7.862;2022-10-17T15:49:00;10.77;;;1.60;;
12302;SDS011;6214;48.012;7.862;2022-10-17T15:51:28;11.38;;;2.25;;
12302;SDS011;6214;48.012;7.862;2022-10-17T15:53:55;12.33;;;1.70;;
12302;SDS011;6214;48.012;7.862;2022-10-17T15:56:24;12.25;;;1.95;;
12302;SDS011;6214;48.012;7.862;2022-10-17T15:58:56;14.00;;;1.70;;
12302;SDS011;6214;48.012;7.862;2022-10-17T16:01:24;10.63;;;1.53;;
12302;SDS011;6214;48.012;7.862;2022-10-17T16:03:53;11.80;;;1.70;;
12302;SDS011;6214;48.012;7.862;2022-10-17T16:06:20;12.05;;;1.60;;
12302;SDS011;6214;48.012;7.862;2022-10-17T16:08:48;10.90;;;1.80;;
12302;SDS011;6214;48.012;7.862;2022-10-17T16:11:35;12.00;;;1.70;;
12302;SDS011;6214;48.012;7.862;2022-10-17T16:14:09;12.10;;;1.88;;
12302;SDS011;6214;48.012;7.862;2022-10-17T16:16:38;12.03;;;1.63;;
12302;SDS011;6214;48.012;7.862;2022-10-17T16:19:06;11.65;;;1.60;;
12302;SDS011;6214;48.012;7.862;2022-10-17T16:21:34;11.73;;;1.60;;
12302;SDS011;6214;48.012;7.862;2022-10-17T16:24:03;11.03;;;1.50;;
12302;SDS011;6214;48.012;7.862;2022-10-17T16:26:30;11.93;;;2.10;;
12302;SDS011;6214;48.012;7.862;2022-10-17T16:28:57;12.00;;;2.00;;
12302;SDS011;6214;48.012;7.862;2022-10-17T16:31:33;10.60;;;1.70;;
12302;SDS011;6214;48.012;7.862;2022-10-17T16:34:01;10.27;;;1.90;;
12302;SDS011;6214;48.012;7.862;2022-10-17T16:36:29;11.88;;;2.20;;
12302;SDS011;6214;48.012;7.862;2022-10-17T16:38:56;13.20;;;2.60;;
12302;SDS011;6214;48.012;7.862;2022-10-17T16:41:27;11.82;;;2.80;;
12302;SDS011;6214;48.012;7.862;2022-10-17T16:43:59;13.95;;;3.38;;
12302;SDS011;6214;48.012;7.862;2022-10-17T16:46:29;13.80;;;3.70;;
12302;SDS011;6214;48.012;7.862;2022-10-17T16:48:56;14.48;;;4.70;;
12302;SDS011;6214;48.012;7.862;2022-10-17T16:51:24;15.60;;;4.10;;
12302;SDS011;6214;48.012;7.862;2022-10-17T16:53:51;12.85;;;4.60;;
12302;SDS011;6214;48.012;7.862;2022-10-17T16:56:22;13.75;;;3.30;;
12302;SDS011;6214;48.012;7.862;2022-10-17T16:58:50;12.82;;;3.20;;
12302;SDS011;6214;48.012;7.862;2022-10-17T17:01:19;12.75;;;3.30;;
12302;SDS011;6214;48.012;7.862;2022-10-17T17:03:48;13.13;;;2.63;;
12302;SDS011;6214;48.012;7.862;2022-10-17T17:06:17;10.77;;;2.30;;
12302;SDS011;6214;48.012;7.862;2022-10-17T17:08:46;12.80;;;3.40;;
12302;SDS011;6214;48.012;7.862;2022-10-17T17:11:13;11.73;;;2.23;;
12302;SDS011;6214;48.012;7.862;2022-10-17T17:13:42;15.65;;;7.72;;
12302;SDS011;6214;48.012;7.862;2022-10-17T17:16:10;14.45;;;5.60;;
12302;SDS011;6214;48.012;7.862;2022-10-17T17:18:38;13.25;;;3.70;;
12302;SDS011;6214;48.012;7.862;2022-10-17T17:21:06;11.40;;;2.05;;
12302;SDS011;6214;48.012;7.862;2022-10-17T17:23:35;12.55;;;3.00;;
12302;SDS011;6214;48.012;7.862;2022-10-17T17:26:04;11.40;;;2.30;;
12302;SDS011;6214;48.012;7.862;2022-10-17T17:28:33;12.20;;;1.80;;